La Luz, New Mexico
Current Conditions -  °F | °C
As of 4:35 PM on Monday 22 Dec 2014 (Local Time) from KALM Reporting Station
Clear Clear  
Wind Chill: 63°   Ceiling: Unl
Heat Index: 63°   Visibility: 10mi
Dew Point: 32°   Wind: 6mph
Humidity: 32%   Direction: 220°SW
Pressure: 29.7"   Gusts: NA
Location:  32.98°N, 105.94°W
Report Text: KALM 222335Z AUTO 22005KT 10SM CLR 17/00 A2970 RMK AO2
Loading
Personal Weather Stations






























Interactive Weather Map New forecast layout! Learn more

10-Day Weather Forecast

Advertisements
Track Severe Weather on mobile